Aviation Digital Data Service (ADDS)

Output produced by METARs form (0327 UTC 30 May 2017)
found at http://www.aviationweather.gov/adds/metars/
 
DFOO 300300Z 20004KT CAVOK 24/22 Q1012
TAF DFOO 292300Z 3000/3024 22010KT 9999 TS FEW020 FEW030CB 
     TEMPO 3000/3006 4000 TSRA 
     BECMG 3006/3008 NSW 
     TEMPO 3016/3022 4000 TSRA SCT026 FEW030CB
       
DFFD 300300Z 22006KT 9999 TS FEW026 FEW040CB 29/21 Q1009 BECMG NSW
TAF DFFD 292300Z 3000/3106 24010KT 9999 FEW026 
     TEMPO 3001/3008 4000 TSRA FEW026 FEW033CB 
     TEMPO 3016/3022 TS FEW026 FEW033CB